sensor_id;sensor_type;location;lat;lon;timestamp;P1;durP1;ratioP1;P2;durP2;ratioP2
41629;SDS011;27322;49.488;8.480;2023-04-15T00:00:06;9.70;;;2.88;;
41629;SDS011;27322;49.488;8.480;2023-04-15T00:02:32;8.60;;;3.25;;
41629;SDS011;27322;49.488;8.480;2023-04-15T00:04:57;9.32;;;3.28;;
41629;SDS011;27322;49.488;8.480;2023-04-15T00:07:23;9.93;;;3.72;;
41629;SDS011;27322;49.488;8.480;2023-04-15T00:09:48;14.90;;;4.63;;
41629;SDS011;27322;49.488;8.480;2023-04-15T00:12:18;15.02;;;5.05;;
41629;SDS011;27322;49.488;8.480;2023-04-15T00:14:43;10.32;;;3.70;;
41629;SDS011;27322;49.488;8.480;2023-04-15T00:17:09;9.18;;;4.05;;
41629;SDS011;27322;49.488;8.480;2023-04-15T00:19:34;10.18;;;3.53;;
41629;SDS011;27322;49.488;8.480;2023-04-15T00:22:00;13.57;;;4.65;;
41629;SDS011;27322;49.488;8.480;2023-04-15T00:24:26;13.52;;;5.10;;
41629;SDS011;27322;49.488;8.480;2023-04-15T00:26:52;13.80;;;4.53;;
41629;SDS011;27322;49.488;8.480;2023-04-15T00:29:17;11.27;;;4.80;;
41629;SDS011;27322;49.488;8.480;2023-04-15T00:31:43;13.35;;;4.80;;
41629;SDS011;27322;49.488;8.480;2023-04-15T00:34:09;14.95;;;4.63;;
41629;SDS011;27322;49.488;8.480;2023-04-15T00:36:34;13.57;;;5.10;;
41629;SDS011;27322;49.488;8.480;2023-04-15T00:39:00;13.20;;;5.43;;
41629;SDS011;27322;49.488;8.480;2023-04-15T00:41:27;13.43;;;5.05;;
41629;SDS011;27322;49.488;8.480;2023-04-15T00:43:52;11.10;;;4.95;;
41629;SDS011;27322;49.488;8.480;2023-04-15T00:46:18;10.68;;;4.65;;
41629;SDS011;27322;49.488;8.480;2023-04-15T00:48:45;12.55;;;5.45;;
41629;SDS011;27322;49.488;8.480;2023-04-15T00:51:12;12.07;;;5.75;;
41629;SDS011;27322;49.488;8.480;2023-04-15T00:53:38;10.30;;;4.63;;
41629;SDS011;27322;49.488;8.480;2023-04-15T00:56:04;11.50;;;4.85;;
41629;SDS011;27322;49.488;8.480;2023-04-15T00:58:30;11.25;;;4.75;;
41629;SDS011;27322;49.488;8.480;2023-04-15T01:00:56;10.70;;;4.90;;
41629;SDS011;27322;49.488;8.480;2023-04-15T01:03:23;13.98;;;5.75;;
41629;SDS011;27322;49.488;8.480;2023-04-15T01:05:49;13.75;;;5.57;;
41629;SDS011;27322;49.488;8.480;2023-04-15T01:08:22;12.43;;;5.50;;
41629;SDS011;27322;49.488;8.480;2023-04-15T01:10:51;11.98;;;5.43;;
41629;SDS011;27322;49.488;8.480;2023-04-15T01:13:19;12.60;;;5.80;;
41629;SDS011;27322;49.488;8.480;2023-04-15T01:15:46;12.07;;;5.57;;
41629;SDS011;27322;49.488;8.480;2023-04-15T01:18:11;13.20;;;5.95;;
41629;SDS011;27322;49.488;8.480;2023-04-15T01:20:37;11.75;;;5.55;;
41629;SDS011;27322;49.488;8.480;2023-04-15T01:23:03;14.38;;;5.57;;
41629;SDS011;27322;49.488;8.480;2023-04-15T01:25:30;9.45;;;4.60;;
41629;SDS011;27322;49.488;8.480;2023-04-15T01:27:59;9.95;;;4.95;;
41629;SDS011;27322;49.488;8.480;2023-04-15T01:30:26;11.65;;;5.22;;
41629;SDS011;27322;49.488;8.480;2023-04-15T01:32:52;12.55;;;5.30;;
41629;SDS011;27322;49.488;8.480;2023-04-15T01:35:17;14.13;;;5.22;;
41629;SDS011;27322;49.488;8.480;2023-04-15T01:37:43;12.32;;;5.78;;
41629;SDS011;27322;49.488;8.480;2023-04-15T01:40:10;13.23;;;5.75;;
41629;SDS011;27322;49.488;8.480;2023-04-15T01:42:36;11.77;;;5.82;;
41629;SDS011;27322;49.488;8.480;2023-04-15T01:45:02;11.45;;;5.50;;
41629;SDS011;27322;49.488;8.480;2023-04-15T01:47:28;13.35;;;5.32;;
41629;SDS011;27322;49.488;8.480;2023-04-15T01:49:53;12.63;;;5.45;;
41629;SDS011;27322;49.488;8.480;2023-04-15T01:52:19;11.00;;;5.40;;
41629;SDS011;27322;49.488;8.480;2023-04-15T01:54:45;11.27;;;5.10;;
41629;SDS011;27322;49.488;8.480;2023-04-15T01:57:11;11.02;;;5.25;;
41629;SDS011;27322;49.488;8.480;2023-04-15T01:59:36;10.88;;;5.13;;
41629;SDS011;27322;49.488;8.480;2023-04-15T02:02:02;11.10;;;4.90;;
41629;SDS011;27322;49.488;8.480;2023-04-15T02:04:28;12.18;;;5.50;;
41629;SDS011;27322;49.488;8.480;2023-04-15T02:06:54;10.90;;;5.30;;
41629;SDS011;27322;49.488;8.480;2023-04-15T02:09:20;10.20;;;4.97;;
41629;SDS011;27322;49.488;8.480;2023-04-15T02:11:46;10.85;;;4.97;;
41629;SDS011;27322;49.488;8.480;2023-04-15T02:14:11;11.35;;;5.43;;
41629;SDS011;27322;49.488;8.480;2023-04-15T02:16:38;12.68;;;5.15;;
41629;SDS011;27322;49.488;8.480;2023-04-15T02:19:04;12.45;;;5.40;;
41629;SDS011;27322;49.488;8.480;2023-04-15T02:21:30;10.63;;;5.30;;
41629;SDS011;27322;49.488;8.480;2023-04-15T02:23:55;11.15;;;5.10;;
41629;SDS011;27322;49.488;8.480;2023-04-15T02:26:21;10.48;;;5.05;;
41629;SDS011;27322;49.488;8.480;2023-04-15T02:28:47;10.60;;;4.88;;
41629;SDS011;27322;49.488;8.480;2023-04-15T02:31:15;8.30;;;4.50;;
41629;SDS011;27322;49.488;8.480;2023-04-15T02:33:41;8.77;;;4.80;;
41629;SDS011;27322;49.488;8.480;2023-04-15T02:36:07;10.40;;;4.93;;
41629;SDS011;27322;49.488;8.480;2023-04-15T02:38:34;7.97;;;4.70;;
41629;SDS011;27322;49.488;8.480;2023-04-15T02:40:59;10.63;;;4.90;;
41629;SDS011;27322;49.488;8.480;2023-04-15T02:43:25;10.73;;;4.88;;
41629;SDS011;27322;49.488;8.480;2023-04-15T02:45:51;10.00;;;4.93;;
41629;SDS011;27322;49.488;8.480;2023-04-15T02:48:17;10.80;;;5.10;;
41629;SDS011;27322;49.488;8.480;2023-04-15T02:50:44;10.48;;;5.30;;
41629;SDS011;27322;49.488;8.480;2023-04-15T02:53:10;9.35;;;5.00;;
41629;SDS011;27322;49.488;8.480;2023-04-15T02:55:37;10.30;;;4.57;;
41629;SDS011;27322;49.488;8.480;2023-04-15T02:58:03;8.48;;;4.80;;
41629;SDS011;27322;49.488;8.480;2023-04-15T03:00:28;11.30;;;5.30;;
41629;SDS011;27322;49.488;8.480;2023-04-15T03:02:58;10.13;;;4.82;;
41629;SDS011;27322;49.488;8.480;2023-04-15T03:05:26;11.00;;;4.90;;
41629;SDS011;27322;49.488;8.480;2023-04-15T03:07:51;9.10;;;4.40;;
41629;SDS011;27322;49.488;8.480;2023-04-15T03:10:17;10.50;;;4.93;;
41629;SDS011;27322;49.488;8.480;2023-04-15T03:12:43;8.50;;;4.85;;
41629;SDS011;27322;49.488;8.480;2023-04-15T03:15:09;9.25;;;5.10;;
41629;SDS011;27322;49.488;8.480;2023-04-15T03:17:34;9.18;;;4.95;;
41629;SDS011;27322;49.488;8.480;2023-04-15T03:20:00;9.20;;;5.35;;
41629;SDS011;27322;49.488;8.480;2023-04-15T03:22:27;11.55;;;4.70;;
41629;SDS011;27322;49.488;8.480;2023-04-15T03:24:53;10.02;;;5.00;;
41629;SDS011;27322;49.488;8.480;2023-04-15T03:27:19;9.35;;;4.97;;
41629;SDS011;27322;49.488;8.480;2023-04-15T03:29:44;11.52;;;5.35;;
41629;SDS011;27322;49.488;8.480;2023-04-15T03:32:10;12.27;;;5.28;;
41629;SDS011;27322;49.488;8.480;2023-04-15T03:34:36;10.20;;;5.38;;
41629;SDS011;27322;49.488;8.480;2023-04-15T03:37:02;9.23;;;4.72;;
41629;SDS011;27322;49.488;8.480;2023-04-15T03:39:28;12.20;;;5.10;;
41629;SDS011;27322;49.488;8.480;2023-04-15T03:41:53;12.40;;;5.13;;
41629;SDS011;27322;49.488;8.480;2023-04-15T03:44:20;11.48;;;5.55;;
41629;SDS011;27322;49.488;8.480;2023-04-15T03:46:45;10.40;;;5.20;;
41629;SDS011;27322;49.488;8.480;2023-04-15T03:49:12;8.57;;;5.07;;
41629;SDS011;27322;49.488;8.480;2023-04-15T03:51:38;10.88;;;5.53;;
41629;SDS011;27322;49.488;8.480;2023-04-15T03:54:03;11.32;;;5.68;;
41629;SDS011;27322;49.488;8.480;2023-04-15T03:56:29;8.63;;;4.50;;
41629;SDS011;27322;49.488;8.480;2023-04-15T03:58:55;11.15;;;5.88;;
41629;SDS011;27322;49.488;8.480;2023-04-15T04:01:21;12.35;;;5.47;;
41629;SDS011;27322;49.488;8.480;2023-04-15T04:03:47;9.88;;;5.07;;
41629;SDS011;27322;49.488;8.480;2023-04-15T04:06:13;10.45;;;5.28;;
41629;SDS011;27322;49.488;8.480;2023-04-15T04:08:39;12.38;;;4.93;;
41629;SDS011;27322;49.488;8.480;2023-04-15T04:11:05;8.15;;;4.63;;
41629;SDS011;27322;49.488;8.480;2023-04-15T04:13:30;9.23;;;4.70;;
41629;SDS011;27322;49.488;8.480;2023-04-15T04:15:56;11.52;;;4.57;;
41629;SDS011;27322;49.488;8.480;2023-04-15T04:18:22;10.82;;;4.40;;
41629;SDS011;27322;49.488;8.480;2023-04-15T04:20:47;9.88;;;4.55;;
41629;SDS011;27322;49.488;8.480;2023-04-15T04:23:13;8.35;;;4.57;;
41629;SDS011;27322;49.488;8.480;2023-04-15T04:25:38;9.60;;;4.90;;
41629;SDS011;27322;49.488;8.480;2023-04-15T04:28:04;8.77;;;4.47;;
41629;SDS011;27322;49.488;8.480;2023-04-15T04:30:30;9.02;;;4.20;;
41629;SDS011;27322;49.488;8.480;2023-04-15T04:32:55;8.95;;;4.40;;
41629;SDS011;27322;49.488;8.480;2023-04-15T04:35:21;6.97;;;3.85;;
41629;SDS011;27322;49.488;8.480;2023-04-15T04:37:46;9.02;;;4.43;;
41629;SDS011;27322;49.488;8.480;2023-04-15T04:40:12;8.18;;;4.30;;
41629;SDS011;27322;49.488;8.480;2023-04-15T04:42:38;8.02;;;4.10;;
41629;SDS011;27322;49.488;8.480;2023-04-15T04:45:03;12.70;;;4.68;;
41629;SDS011;27322;49.488;8.480;2023-04-15T04:47:29;8.57;;;4.82;;
41629;SDS011;27322;49.488;8.480;2023-04-15T04:49:55;11.43;;;5.57;;
41629;SDS011;27322;49.488;8.480;2023-04-15T04:52:21;8.73;;;5.45;;
41629;SDS011;27322;49.488;8.480;2023-04-15T04:54:46;10.55;;;5.22;;
41629;SDS011;27322;49.488;8.480;2023-04-15T04:57:12;11.73;;;4.88;;
41629;SDS011;27322;49.488;8.480;2023-04-15T04:59:38;11.85;;;5.03;;
41629;SDS011;27322;49.488;8.480;2023-04-15T05:02:03;12.05;;;5.07;;
41629;SDS011;27322;49.488;8.480;2023-04-15T05:04:29;8.75;;;4.47;;
41629;SDS011;27322;49.488;8.480;2023-04-15T05:06:56;9.70;;;4.95;;
41629;SDS011;27322;49.488;8.480;2023-04-15T05:09:22;9.27;;;5.18;;
41629;SDS011;27322;49.488;8.480;2023-04-15T05:11:48;8.90;;;5.05;;
41629;SDS011;27322;49.488;8.480;2023-04-15T05:14:13;8.50;;;4.75;;
41629;SDS011;27322;49.488;8.480;2023-04-15T05:16:39;11.25;;;5.60;;
41629;SDS011;27322;49.488;8.480;2023-04-15T05:19:04;11.02;;;5.35;;
41629;SDS011;27322;49.488;8.480;2023-04-15T05:21:30;10.20;;;5.57;;
41629;SDS011;27322;49.488;8.480;2023-04-15T05:23:56;10.35;;;5.00;;
41629;SDS011;27322;49.488;8.480;2023-04-15T05:26:21;9.23;;;5.35;;
41629;SDS011;27322;49.488;8.480;2023-04-15T05:28:48;10.45;;;5.25;;
41629;SDS011;27322;49.488;8.480;2023-04-15T05:31:14;10.30;;;5.30;;
41629;SDS011;27322;49.488;8.480;2023-04-15T05:33:40;10.27;;;5.85;;
41629;SDS011;27322;49.488;8.480;2023-04-15T05:36:08;12.15;;;5.75;;
41629;SDS011;27322;49.488;8.480;2023-04-15T05:38:34;8.82;;;5.20;;
41629;SDS011;27322;49.488;8.480;2023-04-15T05:40:59;10.32;;;5.63;;
41629;SDS011;27322;49.488;8.480;2023-04-15T05:43:25;11.38;;;5.55;;
41629;SDS011;27322;49.488;8.480;2023-04-15T05:45:50;11.75;;;6.03;;
41629;SDS011;27322;49.488;8.480;2023-04-15T05:48:16;12.02;;;6.13;;
41629;SDS011;27322;49.488;8.480;2023-04-15T05:50:42;14.32;;;6.10;;
41629;SDS011;27322;49.488;8.480;2023-04-15T05:53:08;11.00;;;5.72;;
41629;SDS011;27322;49.488;8.480;2023-04-15T05:55:33;11.30;;;5.80;;
41629;SDS011;27322;49.488;8.480;2023-04-15T05:57:59;10.73;;;5.70;;
41629;SDS011;27322;49.488;8.480;2023-04-15T06:00:25;10.18;;;5.32;;
41629;SDS011;27322;49.488;8.480;2023-04-15T06:02:51;10.80;;;5.55;;
41629;SDS011;27322;49.488;8.480;2023-04-15T06:05:17;9.50;;;5.47;;
41629;SDS011;27322;49.488;8.480;2023-04-15T06:07:43;9.38;;;6.13;;
41629;SDS011;27322;49.488;8.480;2023-04-15T06:10:08;12.15;;;5.72;;
41629;SDS011;27322;49.488;8.480;2023-04-15T06:12:34;11.20;;;6.20;;
41629;SDS011;27322;49.488;8.480;2023-04-15T06:15:00;16.77;;;6.80;;
41629;SDS011;27322;49.488;8.480;2023-04-15T06:17:26;12.07;;;6.13;;
41629;SDS011;27322;49.488;8.480;2023-04-15T06:19:52;12.32;;;6.43;;
41629;SDS011;27322;49.488;8.480;2023-04-15T06:22:20;13.02;;;5.90;;
41629;SDS011;27322;49.488;8.480;2023-04-15T06:24:47;10.70;;;5.90;;
41629;SDS011;27322;49.488;8.480;2023-04-15T06:27:14;11.30;;;5.63;;
41629;SDS011;27322;49.488;8.480;2023-04-15T06:29:43;13.00;;;6.28;;
41629;SDS011;27322;49.488;8.480;2023-04-15T06:32:09;10.77;;;6.32;;
41629;SDS011;27322;49.488;8.480;2023-04-15T06:34:35;13.65;;;6.20;;
41629;SDS011;27322;49.488;8.480;2023-04-15T06:37:01;10.38;;;6.00;;
41629;SDS011;27322;49.488;8.480;2023-04-15T06:39:27;10.90;;;6.40;;
41629;SDS011;27322;49.488;8.480;2023-04-15T06:41:52;13.55;;;6.30;;
41629;SDS011;27322;49.488;8.480;2023-04-15T06:44:18;9.68;;;5.88;;
41629;SDS011;27322;49.488;8.480;2023-04-15T06:46:43;12.73;;;6.72;;
41629;SDS011;27322;49.488;8.480;2023-04-15T06:49:09;11.10;;;6.38;;
41629;SDS011;27322;49.488;8.480;2023-04-15T06:51:35;14.45;;;6.60;;
41629;SDS011;27322;49.488;8.480;2023-04-15T06:54:01;13.73;;;7.18;;
41629;SDS011;27322;49.488;8.480;2023-04-15T06:56:30;12.48;;;6.47;;
41629;SDS011;27322;49.488;8.480;2023-04-15T06:58:56;10.30;;;6.15;;
41629;SDS011;27322;49.488;8.480;2023-04-15T07:01:22;14.73;;;6.88;;
41629;SDS011;27322;49.488;8.480;2023-04-15T07:03:47;14.75;;;6.80;;
41629;SDS011;27322;49.488;8.480;2023-04-15T07:06:13;13.05;;;7.28;;
41629;SDS011;27322;49.488;8.480;2023-04-15T07:08:39;13.00;;;6.72;;
41629;SDS011;27322;49.488;8.480;2023-04-15T07:11:04;14.45;;;7.07;;
41629;SDS011;27322;49.488;8.480;2023-04-15T07:13:30;13.35;;;6.75;;
41629;SDS011;27322;49.488;8.480;2023-04-15T07:15:56;13.00;;;6.85;;
41629;SDS011;27322;49.488;8.480;2023-04-15T07:18:22;12.90;;;6.80;;
41629;SDS011;27322;49.488;8.480;2023-04-15T07:20:48;12.85;;;7.25;;
41629;SDS011;27322;49.488;8.480;2023-04-15T07:23:13;13.63;;;7.28;;
41629;SDS011;27322;49.488;8.480;2023-04-15T07:25:39;16.65;;;7.75;;
41629;SDS011;27322;49.488;8.480;2023-04-15T07:28:05;15.50;;;7.25;;
41629;SDS011;27322;49.488;8.480;2023-04-15T07:30:30;12.65;;;6.90;;
41629;SDS011;27322;49.488;8.480;2023-04-15T07:32:57;12.52;;;7.30;;
41629;SDS011;27322;49.488;8.480;2023-04-15T07:35:23;15.52;;;8.13;;
41629;SDS011;27322;49.488;8.480;2023-04-15T07:37:49;15.57;;;6.95;;
41629;SDS011;27322;49.488;8.480;2023-04-15T07:40:16;11.70;;;6.75;;
41629;SDS011;27322;49.488;8.480;2023-04-15T07:42:42;13.02;;;6.97;;
41629;SDS011;27322;49.488;8.480;2023-04-15T07:45:08;15.95;;;7.40;;
41629;SDS011;27322;49.488;8.480;2023-04-15T07:47:34;12.52;;;7.18;;
41629;SDS011;27322;49.488;8.480;2023-04-15T07:50:00;12.85;;;6.60;;
41629;SDS011;27322;49.488;8.480;2023-04-15T07:52:26;12.75;;;7.00;;
41629;SDS011;27322;49.488;8.480;2023-04-15T07:54:52;18.30;;;7.30;;
41629;SDS011;27322;49.488;8.480;2023-04-15T07:57:18;13.25;;;7.28;;
41629;SDS011;27322;49.488;8.480;2023-04-15T07:59:44;14.90;;;7.82;;
41629;SDS011;27322;49.488;8.480;2023-04-15T08:02:09;16.05;;;7.82;;
41629;SDS011;27322;49.488;8.480;2023-04-15T08:04:36;16.73;;;8.05;;
41629;SDS011;27322;49.488;8.480;2023-04-15T08:07:02;15.48;;;7.13;;
41629;SDS011;27322;49.488;8.480;2023-04-15T08:09:28;13.55;;;6.47;;
41629;SDS011;27322;49.488;8.480;2023-04-15T08:11:54;13.65;;;7.07;;
41629;SDS011;27322;49.488;8.480;2023-04-15T08:14:21;16.17;;;6.45;;
41629;SDS011;27322;49.488;8.480;2023-04-15T08:16:46;12.43;;;6.55;;
41629;SDS011;27322;49.488;8.480;2023-04-15T08:19:12;18.85;;;8.00;;
41629;SDS011;27322;49.488;8.480;2023-04-15T08:21:38;16.73;;;7.35;;
41629;SDS011;27322;49.488;8.480;2023-04-15T08:24:05;15.52;;;6.70;;
41629;SDS011;27322;49.488;8.480;2023-04-15T08:26:31;13.38;;;5.85;;
41629;SDS011;27322;49.488;8.480;2023-04-15T08:28:56;12.82;;;5.97;;
41629;SDS011;27322;49.488;8.480;2023-04-15T08:31:22;10.80;;;5.80;;
41629;SDS011;27322;49.488;8.480;2023-04-15T08:33:50;10.60;;;6.10;;
41629;SDS011;27322;49.488;8.480;2023-04-15T08:36:16;8.85;;;5.80;;
41629;SDS011;27322;49.488;8.480;2023-04-15T08:38:43;9.60;;;5.88;;
41629;SDS011;27322;49.488;8.480;2023-04-15T08:41:16;11.45;;;5.85;;
41629;SDS011;27322;49.488;8.480;2023-04-15T08:43:48;12.52;;;5.78;;
41629;SDS011;27322;49.488;8.480;2023-04-15T08:46:22;10.93;;;5.50;;
41629;SDS011;27322;49.488;8.480;2023-04-15T08:48:48;10.45;;;5.43;;
41629;SDS011;27322;49.488;8.480;2023-04-15T08:51:15;13.95;;;6.05;;
41629;SDS011;27322;49.488;8.480;2023-04-15T08:53:43;9.52;;;5.07;;
41629;SDS011;27322;49.488;8.480;2023-04-15T08:56:10;12.77;;;5.57;;
41629;SDS011;27322;49.488;8.480;2023-04-15T08:58:38;8.90;;;5.18;;
41629;SDS011;27322;49.488;8.480;2023-04-15T09:01:03;10.60;;;5.25;;
41629;SDS011;27322;49.488;8.480;2023-04-15T09:03:29;9.77;;;4.80;;
41629;SDS011;27322;49.488;8.480;2023-04-15T09:05:56;9.70;;;5.05;;
41629;SDS011;27322;49.488;8.480;2023-04-15T09:08:22;9.07;;;5.07;;
41629;SDS011;27322;49.488;8.480;2023-04-15T09:10:48;10.35;;;4.95;;
41629;SDS011;27322;49.488;8.480;2023-04-15T09:13:14;8.13;;;4.40;;
41629;SDS011;27322;49.488;8.480;2023-04-15T09:15:40;9.65;;;4.10;;
41629;SDS011;27322;49.488;8.480;2023-04-15T09:18:05;8.48;;;4.00;;
41629;SDS011;27322;49.488;8.480;2023-04-15T09:20:37;7.45;;;3.83;;
41629;SDS011;27322;49.488;8.480;2023-04-15T09:23:13;7.03;;;3.28;;
41629;SDS011;27322;49.488;8.480;2023-04-15T09:25:39;6.22;;;3.05;;
41629;SDS011;27322;49.488;8.480;2023-04-15T09:28:09;6.72;;;3.00;;
41629;SDS011;27322;49.488;8.480;2023-04-15T09:30:35;5.97;;;2.95;;
41629;SDS011;27322;49.488;8.480;2023-04-15T09:33:02;5.97;;;2.95;;
41629;SDS011;27322;49.488;8.480;2023-04-15T09:35:32;8.32;;;3.03;;
41629;SDS011;27322;49.488;8.480;2023-04-15T09:38:03;6.65;;;2.70;;
41629;SDS011;27322;49.488;8.480;2023-04-15T09:40:34;4.00;;;2.13;;
41629;SDS011;27322;49.488;8.480;2023-04-15T09:43:04;4.90;;;2.10;;
41629;SDS011;27322;49.488;8.480;2023-04-15T09:45:31;5.40;;;2.38;;
41629;SDS011;27322;49.488;8.480;2023-04-15T09:47:58;6.53;;;2.63;;
41629;SDS011;27322;49.488;8.480;2023-04-15T09:50:40;5.28;;;2.22;;
41629;SDS011;27322;49.488;8.480;2023-04-15T09:53:08;4.25;;;2.05;;
41629;SDS011;27322;49.488;8.480;2023-04-15T09:55:42;5.97;;;2.47;;
41629;SDS011;27322;49.488;8.480;2023-04-15T09:58:19;4.72;;;2.50;;
41629;SDS011;27322;49.488;8.480;2023-04-15T10:00:52;5.82;;;2.83;;
41629;SDS011;27322;49.488;8.480;2023-04-15T10:03:21;7.85;;;3.00;;
41629;SDS011;27322;49.488;8.480;2023-04-15T10:05:48;5.30;;;2.72;;
41629;SDS011;27322;49.488;8.480;2023-04-15T10:08:18;5.68;;;2.88;;
41629;SDS011;27322;49.488;8.480;2023-04-15T10:10:45;8.63;;;3.90;;
41629;SDS011;27322;49.488;8.480;2023-04-15T10:13:13;7.07;;;3.72;;
41629;SDS011;27322;49.488;8.480;2023-04-15T10:15:42;8.50;;;4.20;;
41629;SDS011;27322;49.488;8.480;2023-04-15T10:18:11;8.68;;;4.47;;
41629;SDS011;27322;49.488;8.480;2023-04-15T10:20:41;7.70;;;4.75;;
41629;SDS011;27322;49.488;8.480;2023-04-15T10:23:09;9.15;;;4.78;;
41629;SDS011;27322;49.488;8.480;2023-04-15T10:25:36;8.38;;;5.10;;
41629;SDS011;27322;49.488;8.480;2023-04-15T10:28:02;9.48;;;4.95;;
41629;SDS011;27322;49.488;8.480;2023-04-15T10:30:31;9.40;;;5.75;;
41629;SDS011;27322;49.488;8.480;2023-04-15T10:32:58;8.20;;;4.82;;
41629;SDS011;27322;49.488;8.480;2023-04-15T10:35:25;11.23;;;5.13;;
41629;SDS011;27322;49.488;8.480;2023-04-15T10:37:52;6.35;;;3.95;;
41629;SDS011;27322;49.488;8.480;2023-04-15T10:40:30;7.93;;;4.65;;
41629;SDS011;27322;49.488;8.480;2023-04-15T10:42:58;7.68;;;4.35;;
41629;SDS011;27322;49.488;8.480;2023-04-15T10:45:33;9.68;;;4.40;;
41629;SDS011;27322;49.488;8.480;2023-04-15T10:48:01;7.88;;;4.10;;
41629;SDS011;27322;49.488;8.480;2023-04-15T10:50:29;6.63;;;3.55;;
41629;SDS011;27322;49.488;8.480;2023-04-15T10:52:56;7.88;;;4.18;;
41629;SDS011;27322;49.488;8.480;2023-04-15T10:55:23;6.47;;;3.50;;
41629;SDS011;27322;49.488;8.480;2023-04-15T10:57:59;6.38;;;3.30;;
41629;SDS011;27322;49.488;8.480;2023-04-15T11:00:26;6.65;;;2.90;;
41629;SDS011;27322;49.488;8.480;2023-04-15T11:02:54;5.22;;;2.88;;
41629;SDS011;27322;49.488;8.480;2023-04-15T11:08:15;5.13;;;2.83;;
41629;SDS011;27322;49.488;8.480;2023-04-15T11:20:35;3.53;;;1.60;;
41629;SDS011;27322;49.488;8.480;2023-04-15T11:23:02;4.75;;;2.28;;
41629;SDS011;27322;49.488;8.480;2023-04-15T11:25:29;5.70;;;2.35;;
41629;SDS011;27322;49.488;8.480;2023-04-15T11:27:57;5.63;;;2.50;;
41629;SDS011;27322;49.488;8.480;2023-04-15T11:30:25;5.43;;;2.50;;
41629;SDS011;27322;49.488;8.480;2023-04-15T11:32:53;4.90;;;2.00;;
41629;SDS011;27322;49.488;8.480;2023-04-15T11:35:21;5.70;;;2.28;;
41629;SDS011;27322;49.488;8.480;2023-04-15T11:37:47;5.05;;;2.20;;
41629;SDS011;27322;49.488;8.480;2023-04-15T11:40:14;7.47;;;2.47;;
41629;SDS011;27322;49.488;8.480;2023-04-15T11:42:41;5.13;;;2.30;;
41629;SDS011;27322;49.488;8.480;2023-04-15T11:45:09;6.25;;;2.60;;
41629;SDS011;27322;49.488;8.480;2023-04-15T11:47:36;5.78;;;2.53;;
41629;SDS011;27322;49.488;8.480;2023-04-15T11:50:16;4.95;;;2.40;;
41629;SDS011;27322;49.488;8.480;2023-04-15T11:52:57;5.88;;;2.47;;
41629;SDS011;27322;49.488;8.480;2023-04-15T11:55:25;4.80;;;2.40;;
41629;SDS011;27322;49.488;8.480;2023-04-15T12:00:50;7.47;;;2.70;;
41629;SDS011;27322;49.488;8.480;2023-04-15T12:03:24;6.47;;;2.85;;
41629;SDS011;27322;49.488;8.480;2023-04-15T12:13:54;4.70;;;1.85;;
41629;SDS011;27322;49.488;8.480;2023-04-15T12:16:23;5.10;;;2.50;;
41629;SDS011;27322;49.488;8.480;2023-04-15T12:18:52;4.10;;;2.05;;
41629;SDS011;27322;49.488;8.480;2023-04-15T12:21:20;5.05;;;2.20;;
41629;SDS011;27322;49.488;8.480;2023-04-15T12:23:51;6.18;;;2.13;;
41629;SDS011;27322;49.488;8.480;2023-04-15T12:26:18;4.00;;;1.80;;
41629;SDS011;27322;49.488;8.480;2023-04-15T12:28:58;3.50;;;1.67;;
41629;SDS011;27322;49.488;8.480;2023-04-15T12:31:27;5.32;;;1.70;;
41629;SDS011;27322;49.488;8.480;2023-04-15T12:33:54;5.18;;;2.15;;
41629;SDS011;27322;49.488;8.480;2023-04-15T12:36:33;4.30;;;1.88;;
41629;SDS011;27322;49.488;8.480;2023-04-15T12:39:02;5.43;;;2.03;;
41629;SDS011;27322;49.488;8.480;2023-04-15T12:41:29;4.00;;;2.03;;
41629;SDS011;27322;49.488;8.480;2023-04-15T12:43:55;4.18;;;1.38;;
41629;SDS011;27322;49.488;8.480;2023-04-15T12:46:21;5.57;;;1.40;;
41629;SDS011;27322;49.488;8.480;2023-04-15T12:48:47;3.60;;;1.10;;
41629;SDS011;27322;49.488;8.480;2023-04-15T12:51:13;2.78;;;0.90;;
41629;SDS011;27322;49.488;8.480;2023-04-15T12:53:39;2.35;;;0.60;;
41629;SDS011;27322;49.488;8.480;2023-04-15T12:56:05;3.78;;;0.80;;
41629;SDS011;27322;49.488;8.480;2023-04-15T12:58:31;2.80;;;0.70;;
41629;SDS011;27322;49.488;8.480;2023-04-15T13:00:57;1.60;;;0.70;;
41629;SDS011;27322;49.488;8.480;2023-04-15T13:03:23;3.92;;;0.63;;
41629;SDS011;27322;49.488;8.480;2023-04-15T13:05:48;2.58;;;0.50;;
41629;SDS011;27322;49.488;8.480;2023-04-15T13:08:14;2.28;;;0.80;;
41629;SDS011;27322;49.488;8.480;2023-04-15T13:10:39;1.50;;;0.57;;
41629;SDS011;27322;49.488;8.480;2023-04-15T13:13:06;2.83;;;0.60;;
41629;SDS011;27322;49.488;8.480;2023-04-15T13:15:32;1.80;;;0.68;;
41629;SDS011;27322;49.488;8.480;2023-04-15T13:17:58;1.55;;;0.65;;
41629;SDS011;27322;49.488;8.480;2023-04-15T13:20:24;3.88;;;0.80;;
41629;SDS011;27322;49.488;8.480;2023-04-15T13:22:51;3.67;;;1.02;;
41629;SDS011;27322;49.488;8.480;2023-04-15T13:25:16;4.25;;;0.90;;
41629;SDS011;27322;49.488;8.480;2023-04-15T13:27:42;4.30;;;0.98;;
41629;SDS011;27322;49.488;8.480;2023-04-15T13:30:08;3.05;;;1.10;;
41629;SDS011;27322;49.488;8.480;2023-04-15T13:32:34;2.10;;;0.90;;
41629;SDS011;27322;49.488;8.480;2023-04-15T13:34:59;2.00;;;0.65;;
41629;SDS011;27322;49.488;8.480;2023-04-15T13:37:28;3.58;;;0.70;;
41629;SDS011;27322;49.488;8.480;2023-04-15T13:39:54;1.52;;;0.60;;
41629;SDS011;27322;49.488;8.480;2023-04-15T13:42:21;2.53;;;0.70;;
41629;SDS011;27322;49.488;8.480;2023-04-15T13:44:48;3.17;;;1.52;;
41629;SDS011;27322;49.488;8.480;2023-04-15T13:47:15;1.77;;;0.60;;
41629;SDS011;27322;49.488;8.480;2023-04-15T13:49:41;1.35;;;0.50;;
41629;SDS011;27322;49.488;8.480;2023-04-15T13:52:08;1.27;;;0.45;;
41629;SDS011;27322;49.488;8.480;2023-04-15T13:54:33;1.67;;;0.70;;
41629;SDS011;27322;49.488;8.480;2023-04-15T13:56:59;3.00;;;1.00;;
41629;SDS011;27322;49.488;8.480;2023-04-15T13:59:25;2.78;;;0.98;;
41629;SDS011;27322;49.488;8.480;2023-04-15T14:01:51;2.85;;;0.90;;
41629;SDS011;27322;49.488;8.480;2023-04-15T14:04:17;2.85;;;0.70;;
41629;SDS011;27322;49.488;8.480;2023-04-15T14:06:42;3.00;;;0.63;;
41629;SDS011;27322;49.488;8.480;2023-04-15T14:09:08;1.90;;;0.77;;
41629;SDS011;27322;49.488;8.480;2023-04-15T14:11:34;2.25;;;0.80;;
41629;SDS011;27322;49.488;8.480;2023-04-15T14:14:02;3.13;;;0.60;;
41629;SDS011;27322;49.488;8.480;2023-04-15T14:16:27;1.52;;;0.65;;
41629;SDS011;27322;49.488;8.480;2023-04-15T14:18:53;1.05;;;0.50;;
41629;SDS011;27322;49.488;8.480;2023-04-15T14:21:19;2.20;;;0.63;;
41629;SDS011;27322;49.488;8.480;2023-04-15T14:23:45;2.67;;;1.00;;
41629;SDS011;27322;49.488;8.480;2023-04-15T14:26:10;2.85;;;0.90;;
41629;SDS011;27322;49.488;8.480;2023-04-15T14:28:37;4.55;;;1.30;;
41629;SDS011;27322;49.488;8.480;2023-04-15T14:31:03;3.13;;;1.27;;
41629;SDS011;27322;49.488;8.480;2023-04-15T14:33:29;3.97;;;1.38;;
41629;SDS011;27322;49.488;8.480;2023-04-15T14:35:54;2.38;;;1.08;;
41629;SDS011;27322;49.488;8.480;2023-04-15T14:38:20;2.05;;;1.13;;
41629;SDS011;27322;49.488;8.480;2023-04-15T14:40:46;3.72;;;1.88;;
41629;SDS011;27322;49.488;8.480;2023-04-15T14:43:12;3.78;;;1.65;;
41629;SDS011;27322;49.488;8.480;2023-04-15T14:45:38;5.13;;;1.50;;
41629;SDS011;27322;49.488;8.480;2023-04-15T14:48:03;2.60;;;1.15;;
41629;SDS011;27322;49.488;8.480;2023-04-15T14:50:30;3.33;;;1.20;;
41629;SDS011;27322;49.488;8.480;2023-04-15T14:52:56;7.25;;;2.30;;
41629;SDS011;27322;49.488;8.480;2023-04-15T14:55:22;2.17;;;1.10;;
41629;SDS011;27322;49.488;8.480;2023-04-15T14:57:48;5.65;;;3.10;;
41629;SDS011;27322;49.488;8.480;2023-04-15T15:00:13;3.35;;;1.30;;